Brownville, Nebraska
Current Conditions -  °F | °C
As of 6:15 PM on Monday 24 Nov 2014 (Local Time) from KAFK Reporting Station
Clear Clear  
Wind Chill: 22°   Ceiling: Unl
Heat Index: 31°   Visibility: 10mi
Dew Point: 12°   Wind: 13mph
Humidity: 46%   Direction: 310°NW
Pressure: 29.95"   Gusts: 17mph
Location:  40.4°N, 95.66°W
Report Text: KAFK 250015Z AUTO 31011G15KT 10SM CLR 00/M11 A2995 RMK AO2 T10041109
Loading
Personal Weather Stations






























Interactive Weather Map New forecast layout! Learn more

10-Day Weather Forecast

Advertisements
Track Severe Weather on mobile